Time;durP1;ratioP1;P1;durP2;ratioP2;P2;SDS_P1;SDS_P2;PMS_P1;PMS_P2;Temp;Humidity;BMP_temperature;BMP_pressure;BME280_temperature;BME280_humidity;BME280_pressure;Samples;Min_cycle;Max_cycle;Signal;HPM_P1;HPM_P2
2022/06/21 00:00:38;;;;;;;4.70;4.30;;;;;;;22.44;46.56;98800.22;5034973;28;20025;-84
2022/06/21 00:03:08;;;;;;;4.30;3.72;;;;;;;23.86;46.77;99020.63;5035960;28;20617;-84
2022/06/21 00:05:38;;;;;;;4.25;3.95;;;;;;;23.66;46.70;99002.63;5034557;28;20046;-84
2022/06/21 00:08:06;;;;;;;5.15;4.32;;;;;;;23.53;46.91;98991.59;5034254;28;20104;-84
2022/06/21 00:10:34;;;;;;;5.68;4.20;;;;;;;23.63;47.11;99019.34;5034190;28;20022;-85
2022/06/21 00:13:01;;;;;;;4.60;4.20;;;;;;;23.25;47.13;98947.25;5035641;28;20457;-84
2022/06/21 00:15:27;;;;;;;5.45;4.20;;;;;;;23.67;47.36;99023.09;5035222;28;20045;-85
2022/06/21 00:17:53;;;;;;;5.15;4.68;;;;;;;23.33;47.67;99004.06;5033476;28;20506;-84
2022/06/21 00:20:22;;;;;;;4.20;3.90;;;;;;;22.90;48.05;98926.63;5035031;28;20108;-84
2022/06/21 00:22:49;;;;;;;4.50;4.20;;;;;;;22.78;48.41;98926.88;5033415;28;20018;-84
2022/06/21 00:25:18;;;;;;;4.57;4.18;;;;;;;23.37;48.53;99017.78;5034893;28;20028;-84
2022/06/21 00:27:43;;;;;;;4.68;4.28;;;;;;;22.62;48.63;98896.50;5034692;28;20017;-84
2022/06/21 00:30:09;;;;;;;4.60;3.95;;;;;;;23.00;48.84;98961.59;5033401;28;20017;-84
2022/06/21 00:32:35;;;;;;;4.53;3.95;;;;;;;22.06;48.93;98820.44;5034388;28;20108;-84
2022/06/21 00:35:00;;;;;;;4.32;4.03;;;;;;;22.75;48.82;98949.75;5034261;28;20029;-84
2022/06/21 00:37:26;;;;;;;4.07;3.72;;;;;;;22.03;48.85;98796.78;5034144;28;20096;-84
2022/06/21 00:39:51;;;;;;;4.50;4.10;;;;;;;23.26;48.99;99010.81;5033140;28;20017;-84
2022/06/21 00:42:31;;;;;;;4.60;4.03;;;;;;;22.87;49.66;98919.09;5033005;28;20156;-84
2022/06/21 00:45:11;;;;;;;6.65;4.57;;;;;;;23.29;49.19;98994.94;5034214;28;20017;-84
2022/06/21 00:47:45;;;;;;;4.07;3.67;;;;;;;22.96;49.23;98938.97;5034333;28;20025;-84
2022/06/21 00:50:25;;;;;;;5.57;4.20;;;;;;;23.29;49.14;98984.16;5034182;28;20025;-84
2022/06/21 00:53:15;;;;;;;4.30;3.90;;;;;;;23.19;49.45;98991.44;5034123;28;20029;-84
2022/06/21 00:55:44;;;;;;;4.45;4.05;;;;;;;22.88;49.82;98975.34;5034026;28;20534;-84
2022/06/21 00:58:13;;;;;;;5.45;4.95;;;;;;;22.62;49.92;98926.09;5032656;28;20033;-84
2022/06/21 01:00:44;;;;;;;5.05;4.63;;;;;;;22.96;50.17;98993.63;5032457;28;20497;-84
2022/06/21 01:03:17;;;;;;;4.68;4.22;;;;;;;22.49;50.42;98923.97;5033708;28;20083;-84
2022/06/21 01:05:44;;;;;;;5.40;4.95;;;;;;;22.32;50.47;98926.94;5033756;28;20461;-84
2022/06/21 01:08:14;;;;;;;5.57;5.07;;;;;;;22.51;50.68;98940.66;5032451;28;20025;-84
2022/06/21 01:10:42;;;;;;;5.60;4.80;;;;;;;22.05;50.65;98870.72;5032503;28;20029;-84
2022/06/21 01:13:16;;;;;;;5.65;5.15;;;;;;;22.38;51.03;98933.94;5033665;28;20025;-84
2022/06/21 01:15:45;;;;;;;7.47;6.78;;;;;;;22.13;50.70;98899.75;5033655;28;20029;-84
2022/06/21 01:18:14;;;;;;;7.70;7.00;;;;;;;22.62;51.02;98981.81;5033761;28;20025;-84
2022/06/21 01:20:43;;;;;;;10.77;7.32;;;;;;;21.14;50.94;98755.84;5032517;28;20434;-85
2022/06/21 01:23:35;;;;;;;8.95;7.70;;;;;;;22.55;51.42;98978.59;5032518;28;20025;-84
2022/06/21 01:26:28;;;;;;;8.13;7.32;;;;;;;22.38;51.98;98974.28;5033678;28;20518;-84
2022/06/21 01:28:54;;;;;;;8.70;7.85;;;;;;;22.32;51.53;98978.03;5032713;28;20037;-84
2022/06/21 01:31:20;;;;;;;8.43;7.63;;;;;;;21.22;52.07;98845.81;5032077;28;20029;-84
2022/06/21 01:33:45;;;;;;;9.07;8.27;;;;;;;21.67;52.31;98919.56;5033184;28;20025;-85
2022/06/21 01:36:17;;;;;;;9.93;7.38;;;;;;;21.94;52.68;98976.59;5033225;28;20029;-84
2022/06/21 01:39:05;;;;;;;10.55;8.10;;;;;;;21.96;52.85;98979.81;5031839;28;20074;-84
2022/06/21 01:41:43;;;;;;;8.38;7.55;;;;;;;21.53;52.83;98914.66;5033238;28;20030;-84
2022/06/21 01:44:15;;;;;;;7.32;6.72;;;;;;;21.43;52.69;98903.91;5033156;28;20052;-84
2022/06/21 01:46:40;;;;;;;7.57;6.85;;;;;;;21.71;52.76;98939.44;5031775;28;20017;-84
2022/06/21 01:49:13;;;;;;;8.10;6.95;;;;;;;21.77;52.82;98935.72;5033174;28;20052;-84
2022/06/21 01:51:43;;;;;;;6.82;6.05;;;;;;;21.76;52.60;98959.09;5031812;28;20052;-84
2022/06/21 01:54:13;;;;;;;8.20;6.00;;;;;;;21.53;52.86;98922.72;5032854;28;20030;-84
2022/06/21 01:56:40;;;;;;;6.80;6.22;;;;;;;21.32;52.82;98902.25;5032818;28;20029;-84
2022/06/21 01:59:23;;;;;;;7.95;5.65;;;;;;;21.84;52.87;98971.19;5031370;28;20092;-84
2022/06/21 02:02:03;;;;;;;6.60;6.00;;;;;;;21.34;53.09;98912.72;5032722;28;20438;-84
2022/06/21 02:04:36;;;;;;;5.90;5.43;;;;;;;21.21;53.11;98892.50;5032754;28;20067;-84
2022/06/21 02:07:07;;;;;;;9.35;6.18;;;;;;;21.46;53.06;98938.28;5031562;28;20018;-84
2022/06/21 02:09:37;;;;;;;6.20;5.70;;;;;;;21.70;53.17;98967.41;5031343;28;20446;-84
2022/06/21 02:12:10;;;;;;;7.20;5.93;;;;;;;21.68;52.74;98956.09;5032501;28;20104;-84
2022/06/21 02:14:43;;;;;;;6.82;5.43;;;;;;;21.12;52.88;98915.56;5032259;28;20025;-84
2022/06/21 02:17:16;;;;;;;7.38;6.22;;;;;;;21.35;53.01;98931.25;5031379;28;20107;-85
2022/06/21 02:19:42;;;;;;;6.40;5.63;;;;;;;21.68;53.07;98974.91;5032941;28;20501;-85
2022/06/21 02:22:24;;;;;;;8.05;5.78;;;;;;;21.48;53.23;98962.19;5031272;28;20121;-84
2022/06/21 02:24:51;;;;;;;6.72;6.13;;;;;;;21.58;53.21;98985.63;5032611;28;20056;-84
2022/06/21 02:27:20;;;;;;;7.40;5.85;;;;;;;21.38;53.13;98959.47;5031363;28;20027;-85
2022/06/21 02:29:50;;;;;;;8.35;6.07;;;;;;;21.24;53.43;98956.47;5032429;28;20029;-85
2022/06/21 02:32:23;;;;;;;6.40;5.80;;;;;;;21.46;53.15;98992.00;5032104;28;20025;-84
2022/06/21 02:34:54;;;;;;;6.10;5.50;;;;;;;21.07;53.03;98920.91;5031951;28;20057;-84
2022/06/21 02:37:19;;;;;;;9.32;5.55;;;;;;;21.25;53.16;98941.97;5032126;28;20025;-84
2022/06/21 02:39:46;;;;;;;6.35;5.72;;;;;;;20.89;52.83;98890.78;5030857;28;20391;-84
2022/06/21 02:42:19;;;;;;;5.82;5.22;;;;;;;21.55;53.01;98982.41;5030838;28;20025;-84
2022/06/21 02:44:51;;;;;;;6.70;5.95;;;;;;;21.53;52.96;98995.25;5032042;28;20018;-84
2022/06/21 02:47:32;;;;;;;7.45;6.38;;;;;;;21.56;52.72;98992.06;5030873;28;20108;-84
2022/06/21 02:50:06;;;;;;;6.70;5.82;;;;;;;21.34;52.89;98972.59;5030766;28;20445;-85
2022/06/21 02:52:38;;;;;;;7.05;6.20;;;;;;;21.28;52.80;98987.09;5030633;28;20060;-85
2022/06/21 02:55:29;;;;;;;8.32;6.05;;;;;;;21.51;53.23;99010.81;5030617;28;20028;-85
2022/06/21 02:58:05;;;;;;;6.57;5.80;;;;;;;21.50;53.23;99008.41;5031787;28;20036;-84
2022/06/21 03:00:32;;;;;;;8.43;5.78;;;;;;;21.51;52.88;99010.81;5030468;28;20033;-84
2022/06/21 03:03:03;;;;;;;6.63;5.72;;;;;;;21.55;53.09;99011.94;5030496;28;20033;-84
2022/06/21 03:05:29;;;;;;;6.88;6.18;;;;;;;21.23;53.01;98954.84;5030314;28;20046;-84
2022/06/21 03:08:00;;;;;;;6.53;5.93;;;;;;;20.88;52.81;98907.13;5031511;28;20160;-84
2022/06/21 03:10:31;;;;;;;5.93;5.43;;;;;;;21.29;52.54;98947.63;5031674;28;20102;-84
2022/06/21 03:13:14;;;;;;;6.97;6.10;;;;;;;21.36;52.76;98935.56;5030415;28;20414;-84
2022/06/21 03:15:41;;;;;;;8.65;5.93;;;;;;;21.40;52.62;98938.53;5030268;28;20109;-84
2022/06/21 03:18:14;;;;;;;8.32;5.85;;;;;;;21.54;52.26;98943.16;5030219;28;20494;-84
2022/06/21 03:20:41;;;;;;;10.73;6.25;;;;;;;21.82;52.36;98989.47;5030072;28;20021;-84
2022/06/21 03:23:07;;;;;;;7.13;6.45;;;;;;;21.34;52.19;98910.84;5031436;28;20032;-85
2022/06/21 03:25:46;;;;;;;7.40;5.43;;;;;;;21.79;52.15;98992.69;5030273;28;20399;-84
2022/06/21 03:28:22;;;;;;;8.07;5.60;;;;;;;21.06;52.31;98863.72;5030546;28;20076;-84
2022/06/21 03:30:52;;;;;;;7.22;6.18;;;;;;;21.69;52.36;98968.47;5031281;28;20067;-84
2022/06/21 03:33:18;;;;;;;7.32;6.53;;;;;;;21.43;52.42;98941.50;5031343;28;20093;-84
2022/06/21 03:35:43;;;;;;;7.25;6.55;;;;;;;21.06;52.20;98868.28;5030142;28;20021;-84
2022/06/21 03:38:09;;;;;;;7.57;6.10;;;;;;;21.63;52.00;98964.16;5030266;28;20112;-84
2022/06/21 03:43:29;;;;;;;6.03;5.32;;;;;;;21.50;51.88;98968.09;5031498;28;20056;-84
2022/06/21 03:45:59;;;;;;;6.95;5.50;;;;;;;20.84;51.67;98839.75;5031222;28;20049;-84
2022/06/21 03:48:31;;;;;;;5.63;4.90;;;;;;;20.79;51.95;98866.53;5031145;28;20104;-84
2022/06/21 03:51:14;;;;;;;;;;;;;;;21.38;52.33;98962.97;5031962;28;20029;-84
2022/06/21 03:53:53;;;;;;;5.85;5.30;;;;;;;20.75;51.80;98843.97;5031106;28;19992;-84
2022/06/21 03:56:25;;;;;;;5.90;5.43;;;;;;;20.94;51.88;98876.56;5029831;28;20136;-84
2022/06/21 03:59:07;;;;;;;5.97;5.45;;;;;;;21.50;51.77;98955.47;5029933;28;20388;-84
2022/06/21 04:01:51;;;;;;;;;;;;;;;21.42;52.12;98963.25;5031582;28;20391;-84
2022/06/21 04:04:17;;;;;;;6.03;5.43;;;;;;;21.55;51.77;98960.06;5029740;28;19928;-84
2022/06/21 04:07:21;;;;;;;5.88;5.28;;;;;;;21.27;51.65;98923.72;5029563;28;20045;-84
2022/06/21 04:10:11;;;;;;;6.28;5.43;;;;;;;20.87;51.72;98874.13;5022127;28;20037;-84
2022/06/21 04:12:53;;;;;;;6.80;5.28;;;;;;;21.50;51.45;98952.81;5031012;28;20795;-84
2022/06/21 04:16:07;;;;;;;5.90;5.38;;;;;;;21.70;51.62;98965.53;5031104;28;20064;-84
2022/06/21 04:18:47;;;;;;;6.68;5.03;;;;;;;21.82;51.24;98952.66;5022343;28;20037;-84
2022/06/21 04:21:25;;;;;;;6.65;5.43;;;;;;;21.93;50.94;98958.03;5030928;28;20049;-84
2022/06/21 04:24:04;;;;;;;5.80;4.50;;;;;;;21.41;50.47;98881.88;5030742;28;20421;-84
2022/06/21 04:26:36;;;;;;;5.18;4.72;;;;;;;21.40;50.45;98868.69;5031010;28;20053;-85
2022/06/21 04:29:10;;;;;;;5.45;4.20;;;;;;;21.90;50.26;98959.38;5029840;28;20029;-84
2022/06/21 04:32:01;;;;;;;7.80;5.05;;;;;;;21.50;49.92;98877.59;5031014;28;20032;-84
2022/06/21 04:34:33;;;;;;;7.00;4.57;;;;;;;22.13;50.06;98953.53;5029388;28;20490;-84
2022/06/21 04:37:06;;;;;;;7.53;5.30;;;;;;;21.82;49.97;98914.22;5029832;28;20029;-84
2022/06/21 04:39:35;;;;;;;5.90;4.45;;;;;;;22.14;50.08;98948.97;5033507;28;20021;-84
2022/06/21 04:42:10;;;;;;;6.25;4.35;;;;;;;21.89;49.71;98906.69;5034356;28;20108;-84
2022/06/21 04:44:51;;;;;;;6.38;4.30;;;;;;;22.32;49.61;98948.47;5032985;28;20049;-84
2022/06/21 04:47:30;;;;;;;7.78;4.22;;;;;;;21.58;49.24;98821.75;5033650;28;20029;-84
2022/06/21 04:50:17;;;;;;;5.30;4.05;;;;;;;22.37;49.49;98940.38;5034673;28;20037;-84
2022/06/21 04:52:55;;;;;;;7.30;4.00;;;;;;;21.98;49.20;98888.97;5033276;28;20029;-84
2022/06/21 04:55:26;;;;;;;6.18;4.20;;;;;;;21.81;49.15;98873.09;5034088;28;20022;-84
2022/06/21 04:57:52;;;;;;;4.88;4.00;;;;;;;21.59;49.13;98810.75;5034157;28;20113;-84
2022/06/21 05:00:20;;;;;;;4.72;4.20;;;;;;;22.49;48.77;98945.50;5033911;28;20029;-84
2022/06/21 05:02:55;;;;;;;5.80;4.28;;;;;;;22.49;48.99;98942.81;5033917;28;20025;-84
2022/06/21 05:05:27;;;;;;;6.75;4.22;;;;;;;22.46;48.96;98936.06;5032590;28;20100;-84
2022/06/21 05:08:13;;;;;;;5.90;4.18;;;;;;;22.63;48.91;98937.66;5033828;28;20030;-84
2022/06/21 05:10:43;;;;;;;6.47;4.30;;;;;;;22.15;48.56;98843.81;5031956;28;20087;-85
2022/06/21 05:13:24;;;;;;;4.97;4.10;;;;;;;22.24;48.57;98844.09;5033761;28;20097;-84
2022/06/21 05:15:50;;;;;;;4.05;3.75;;;;;;;22.05;47.99;98822.31;5032253;28;20034;-84
2022/06/21 05:18:23;;;;;;;11.65;4.70;;;;;;;22.57;48.14;98904.59;5032173;28;20071;-84
2022/06/21 05:21:00;;;;;;;4.93;3.28;;;;;;;22.55;47.45;98898.66;5032105;28;20465;-84
2022/06/21 05:23:26;;;;;;;4.20;3.28;;;;;;;22.74;47.18;98910.47;5033403;28;20025;-84
2022/06/21 05:25:52;;;;;;;5.30;3.80;;;;;;;22.65;47.31;98908.59;5033375;28;20061;-84
2022/06/21 05:28:27;;;;;;;5.97;4.55;;;;;;;22.99;47.36;98927.66;5033269;28;20371;-84
2022/06/21 05:31:19;;;;;;;4.30;3.70;;;;;;;22.98;47.62;98929.56;5032080;28;20414;-84
2022/06/21 05:33:49;;;;;;;6.75;4.30;;;;;;;22.62;47.52;98872.28;5032093;28;20026;-84
2022/06/21 05:36:22;;;;;;;4.43;4.00;;;;;;;23.15;47.34;98931.94;5032132;28;20029;-84
2022/06/21 05:39:22;;;;;;;7.40;3.90;;;;;;;22.92;47.32;98895.66;5033381;28;20408;-84
2022/06/21 05:41:51;;;;;;;5.40;4.68;;;;;;;23.00;47.09;98907.75;5032169;28;20021;-84
2022/06/21 05:44:29;;;;;;;6.00;4.55;;;;;;;23.33;46.11;98944.00;5031707;28;20021;-84
2022/06/21 05:47:02;;;;;;;4.72;3.28;;;;;;;23.37;45.66;98948.56;5033215;28;20032;-84
2022/06/21 05:49:31;;;;;;;5.47;2.95;;;;;;;22.95;44.71;98880.84;5032680;28;20529;-85
2022/06/21 05:52:01;;;;;;;5.45;3.40;;;;;;;22.78;44.45;98857.72;5031299;28;20059;-85
2022/06/21 05:54:32;;;;;;;4.05;3.40;;;;;;;23.32;44.00;98908.16;5030750;28;20033;-85
2022/06/21 05:57:01;;;;;;;4.75;3.30;;;;;;;23.13;44.13;98875.66;5030979;28;20080;-86
2022/06/21 05:59:27;;;;;;;4.05;3.65;;;;;;;22.88;43.93;98826.47;5031355;28;20026;-85
2022/06/21 06:02:01;;;;;;;5.70;3.15;;;;;;;23.74;43.62;98952.72;5020254;28;20025;-85
2022/06/21 06:04:47;;;;;;;5.25;3.50;;;;;;;23.79;43.88;98952.72;5012792;28;20053;-85
2022/06/21 06:07:29;;;;;;;4.57;2.60;;;;;;;23.52;43.67;98901.88;5013107;28;20064;-85
2022/06/21 06:09:58;;;;;;;3.55;3.25;;;;;;;23.28;43.32;98855.13;5012820;28;20025;-85
2022/06/21 06:12:28;;;;;;;3.30;3.00;;;;;;;23.76;43.28;98926.28;5026046;28;20167;-85
2022/06/21 06:15:00;;;;;;;4.30;3.40;;;;;;;23.66;43.30;98920.97;5030930;28;20083;-85
2022/06/21 06:17:41;;;;;;;4.38;3.05;;;;;;;24.03;43.43;98942.03;5030840;28;20029;-85
2022/06/21 06:20:31;;;;;;;5.13;4.53;;;;;;;24.23;43.29;98935.69;5032545;28;20128;-84
2022/06/21 06:23:00;;;;;;;7.78;4.05;;;;;;;24.34;43.13;98934.53;5032481;28;20056;-84
2022/06/21 06:25:41;;;;;;;3.67;3.28;;;;;;;23.91;42.69;98882.28;5032211;28;20048;-84
2022/06/21 06:28:22;;;;;;;5.63;5.13;;;;;;;24.47;42.72;98936.59;5023320;28;20523;-83
2022/06/21 06:31:15;;;;;;;6.63;4.07;;;;;;;24.28;42.26;98896.03;5011231;28;20026;-84
2022/06/21 06:33:46;;;;;;;6.45;4.75;;;;;;;24.02;42.28;98862.22;5010698;28;20025;-83
2022/06/21 06:36:17;;;;;;;3.22;2.92;;;;;;;24.64;42.01;98939.69;5012340;28;20026;-85
2022/06/21 06:38:43;;;;;;;5.85;3.50;;;;;;;24.72;41.88;98932.88;5010781;28;20028;-83
2022/06/21 06:41:27;;;;;;;4.18;3.78;;;;;;;24.70;41.92;98919.66;5012142;28;20399;-83
2022/06/21 06:43:59;;;;;;;7.55;5.57;;;;;;;24.17;41.94;98834.31;5012463;28;20026;-83
2022/06/21 06:46:32;;;;;;;5.35;4.72;;;;;;;24.96;42.15;98931.00;5017521;28;20529;-84
2022/06/21 06:49:38;;;;;;;6.00;5.03;;;;;;;23.72;41.36;98725.78;5028480;28;20052;-83
2022/06/21 06:52:13;;;;;;;4.47;4.00;;;;;;;25.09;41.66;98943.03;5025120;28;20037;-84
2022/06/21 06:54:52;;;;;;;5.82;5.07;;;;;;;25.01;41.38;98920.16;5031848;28;20021;-83
2022/06/21 06:57:30;;;;;;;6.80;5.15;;;;;;;24.91;41.61;98887.03;5029159;28;20091;-83
2022/06/21 06:59:56;;;;;;;8.30;5.43;;;;;;;25.42;41.31;98932.41;5013991;28;20084;-83
2022/06/21 07:02:35;;;;;;;4.32;3.92;;;;;;;25.12;41.50;98883.03;5034477;28;20017;-83
2022/06/21 07:05:12;;;;;;;4.60;4.20;;;;;;;25.60;41.46;98937.81;5011797;28;20048;-82
2022/06/21 07:07:45;;;;;;;5.43;3.50;;;;;;;25.43;40.71;98893.47;5010521;28;20041;-83
2022/06/21 07:10:17;;;;;;;8.98;3.47;;;;;;;25.16;40.38;98851.66;5029789;28;20397;-83
2022/06/21 07:12:43;;;;;;;4.47;4.07;;;;;;;25.16;40.15;98830.03;5022499;28;20101;-83
2022/06/21 07:15:11;;;;;;;4.72;3.40;;;;;;;25.83;39.54;98922.66;5026903;28;20141;-83
2022/06/21 07:17:47;;;;;;;3.65;2.50;;;;;;;24.73;39.55;98747.41;5017647;28;20053;-83
2022/06/21 07:20:23;;;;;;;4.80;3.10;;;;;;;25.95;38.77;98917.63;5011550;28;20018;-84
2022/06/21 07:22:52;;;;;;;6.45;3.40;;;;;;;25.58;39.24;98871.63;5010278;28;20107;-84
2022/06/21 07:25:41;;;;;;;4.25;3.70;;;;;;;26.21;38.90;98925.34;5011749;28;20349;-83
2022/06/21 07:28:15;;;;;;;4.57;3.50;;;;;;;25.97;38.69;98874.03;5011648;28;20022;-83
2022/06/21 07:30:47;;;;;;;3.28;3.00;;;;;;;26.40;39.03;98915.31;5010312;28;20033;-83
2022/06/21 07:33:19;;;;;;;3.80;2.95;;;;;;;25.81;38.55;98808.56;5027391;28;20054;-83
2022/06/21 07:35:49;;;;;;;3.70;3.40;;;;;;;26.58;38.56;98914.44;5010064;28;20406;-85
2022/06/21 07:38:25;;;;;;;4.40;3.63;;;;;;;26.44;37.89;98881.13;5011520;28;20022;-84
2022/06/21 07:40:59;;;;;;;6.40;3.03;;;;;;;26.45;37.33;98882.75;5011330;28;20026;-85
2022/06/21 07:43:28;;;;;;;5.25;3.15;;;;;;;26.81;37.44;98909.19;5009775;28;20025;-85
2022/06/21 07:45:58;;;;;;;3.25;2.92;;;;;;;26.31;37.22;98822.34;5011313;28;20062;-83
2022/06/21 07:48:45;;;;;;;3.53;3.13;;;;;;;26.97;36.73;98921.34;5012799;28;20540;-84
2022/06/21 07:51:17;;;;;;;4.85;4.00;;;;;;;26.81;37.13;98882.91;5040141;28;20204;-84
2022/06/21 07:54:07;;;;;;;3.17;2.40;;;;;;;27.17;36.93;98917.44;5011419;28;20121;-82
2022/06/21 07:56:49;;;;;;;4.47;3.97;;;;;;;26.86;36.91;98863.03;5034604;28;20025;-84
2022/06/21 07:59:35;;;;;;;5.40;4.53;;;;;;;27.11;36.79;98873.41;5037688;28;20108;-85
2022/06/21 08:07:58;;;;;;;3.85;3.25;;;;;;;27.57;36.08;98910.38;5016437;28;20039;-84
2022/06/21 08:10:40;;;;;;;3.15;2.90;;;;;;;26.99;35.61;98799.16;5027512;28;20060;-84
2022/06/21 08:13:05;;;;;;;5.43;3.20;;;;;;;27.13;35.93;98819.69;5030309;28;20029;-83
2022/06/21 08:15:37;;;;;;;4.63;3.75;;;;;;;27.81;35.57;98912.88;5039377;28;20414;-83
2022/06/21 08:18:05;;;;;;;;;;;;;;;27.69;35.70;98912.59;5036477;28;20033;-83
2022/06/21 08:20:48;;;;;;;6.13;4.97;;;;;;;27.67;35.80;98893.13;5026717;28;19989;-83
2022/06/21 08:23:21;;;;;;;6.22;5.72;;;;;;;27.61;35.88;98861.78;5026862;28;20080;-84
2022/06/21 08:25:56;;;;;;;5.07;4.15;;;;;;;27.76;35.78;98878.53;5034109;28;20097;-84
2022/06/21 08:28:43;;;;;;;4.18;3.83;;;;;;;27.85;35.43;98865.81;5032088;28;20029;-84
2022/06/21 08:31:19;;;;;;;4.88;4.38;;;;;;;27.75;35.47;98830.00;5038852;28;20029;-83
2022/06/21 08:34:00;;;;;;;3.88;3.50;;;;;;;28.25;35.52;98897.75;5024310;28;20104;-84
2022/06/21 08:36:32;;;;;;;4.38;3.85;;;;;;;27.72;35.30;98798.06;5039020;28;20093;-84
2022/06/21 08:39:08;;;;;;;5.00;3.47;;;;;;;28.64;35.23;98919.53;5031168;28;20060;-84
2022/06/21 08:42:26;;;;;;;3.92;3.40;;;;;;;28.72;35.07;98924.22;5023895;28;20120;-83
2022/06/21 08:45:42;;;;;;;4.35;3.47;;;;;;;28.84;34.48;98925.56;5034766;28;20480;-83
2022/06/21 08:48:13;;;;;;;3.70;3.33;;;;;;;28.91;34.85;98912.34;5043158;28;20108;-83
2022/06/21 08:50:39;;;;;;;;;;;;;;;28.86;34.77;98926.06;5027927;28;20503;-83
2022/06/21 08:53:29;;;;;;;5.15;4.60;;;;;;;29.07;34.46;98917.06;5032612;28;19909;-83
2022/06/21 08:55:54;;;;;;;5.50;4.20;;;;;;;29.21;34.91;98927.00;5021880;28;20063;-83
2022/06/21 08:58:38;;;;;;;5.50;4.88;;;;;;;29.38;34.90;98922.41;5018090;28;20037;-83
2022/06/21 09:01:26;;;;;;;4.85;3.53;;;;;;;29.54;33.89;98902.94;5036770;28;20481;-83
2022/06/21 09:04:25;;;;;;;4.82;4.30;;;;;;;29.65;34.24;98915.13;5020879;28;20053;-85
2022/06/21 09:07:15;;;;;;;4.15;3.75;;;;;;;29.45;33.85;98859.41;5017168;28;20567;-83
2022/06/21 09:10:10;;;;;;;4.80;3.33;;;;;;;29.69;33.61;98873.34;5015761;28;20407;-84
2022/06/21 09:12:47;;;;;;;4.32;3.60;;;;;;;30.07;33.24;98910.06;5019697;28;20096;-85
2022/06/21 09:15:37;;;;;;;4.38;3.15;;;;;;;30.25;33.05;98904.25;5021052;28;20033;-82
2022/06/21 09:18:47;;;;;;;4.60;4.00;;;;;;;30.40;32.49;98893.97;5013042;28;20050;-84
2022/06/21 09:21:33;;;;;;;7.60;5.47;;;;;;;30.12;32.63;98826.28;5018248;28;20040;-84
2022/06/21 09:24:20;;;;;;;4.22;3.83;;;;;;;30.83;32.52;98904.78;5013411;28;20049;-83
2022/06/21 09:27:01;;;;;;;4.78;4.35;;;;;;;31.06;32.10;98900.66;5012765;28;20465;-83
2022/06/21 09:29:39;;;;;;;5.28;3.53;;;;;;;29.73;31.49;98680.34;5013671;28;20026;-83
2022/06/21 09:32:10;;;;;;;3.80;3.30;;;;;;;30.73;31.21;98826.13;5015066;28;20491;-84
2022/06/21 09:34:56;;;;;;;7.22;5.00;;;;;;;30.50;31.19;98771.06;5011737;28;20033;-83
2022/06/21 09:37:27;;;;;;;6.38;3.92;;;;;;;31.39;31.36;98861.84;5027493;28;20037;-83
2022/06/21 09:39:52;;;;;;;4.70;4.30;;;;;;;31.80;30.91;98894.63;5030146;28;20021;-83
2022/06/21 09:42:26;;;;;;;6.55;4.45;;;;;;;31.94;30.30;98888.88;5021071;28;20391;-84
2022/06/21 09:45:15;;;;;;;5.60;5.10;;;;;;;31.82;29.99;98858.81;5030914;28;20031;-83
2022/06/21 09:48:22;;;;;;;5.35;3.90;;;;;;;32.32;29.47;98883.25;5010942;28;20128;-83
2022/06/21 09:51:26;;;;;;;5.03;4.57;;;;;;;32.20;28.87;98848.50;5006709;28;20037;-83
2022/06/21 09:54:01;;;;;;;4.95;4.18;;;;;;;32.65;28.86;98888.66;5027151;28;20059;-83
2022/06/21 09:56:29;;;;;;;7.13;4.60;;;;;;;32.78;28.55;98884.88;5057207;28;20103;-83
2022/06/21 09:59:08;;;;;;;5.53;4.80;;;;;;;32.91;28.20;98887.59;5046743;28;20026;-83
2022/06/21 10:01:51;;;;;;;4.68;4.07;;;;;;;32.76;28.00;98857.03;5048582;28;20025;-84
2022/06/21 10:04:28;;;;;;;5.55;4.25;;;;;;;33.08;28.04;98866.28;5052126;28;20116;-83
2022/06/21 10:07:00;;;;;;;4.05;3.75;;;;;;;33.29;28.29;98863.41;5052432;28;20062;-83
2022/06/21 10:09:37;;;;;;;4.20;3.80;;;;;;;33.45;27.45;98858.88;5048769;28;20127;-83
2022/06/21 10:12:20;;;;;;;5.47;3.45;;;;;;;33.16;27.69;98812.59;5052520;28;20024;-83
2022/06/21 10:15:15;;;;;;;5.97;3.78;;;;;;;33.59;27.43;98857.69;5049201;28;20084;-83
2022/06/21 10:18:02;;;;;;;4.03;3.45;;;;;;;33.66;26.60;98852.41;5024417;28;20109;-83
2022/06/21 10:20:40;;;;;;;3.70;3.38;;;;;;;33.73;26.01;98852.63;5045424;28;20057;-83
2022/06/21 10:23:35;;;;;;;5.05;3.15;;;;;;;33.86;26.71;98847.91;5050370;28;20027;-83
2022/06/21 10:26:04;;;;;;;5.68;3.88;;;;;;;34.07;26.57;98846.56;5035925;28;20037;-82
2022/06/21 10:29:34;;;;;;;5.20;4.32;;;;;;;32.82;26.50;98619.78;5041527;28;20575;-83
2022/06/21 10:32:21;;;;;;;3.80;3.50;;;;;;;34.40;26.09;98834.53;5010919;28;20504;-83
2022/06/21 10:35:35;;;;;;;4.30;3.90;;;;;;;34.24;25.89;98798.06;5009742;28;20071;-83
2022/06/21 10:38:14;;;;;;;6.90;5.80;;;;;;;34.23;26.05;98769.88;5030231;28;20045;-83
2022/06/21 10:41:10;;;;;;;5.07;4.47;;;;;;;34.82;25.79;98825.75;5036402;28;20476;-83
2022/06/21 10:43:51;;;;;;;4.28;3.78;;;;;;;34.59;24.88;98779.00;5037382;28;20490;-83
2022/06/21 10:46:26;;;;;;;4.10;3.70;;;;;;;35.01;25.57;98836.84;5030299;28;20036;-83
2022/06/21 10:48:55;;;;;;;5.18;3.40;;;;;;;35.08;25.15;98823.28;5031448;28;20025;-83
2022/06/21 10:51:26;;;;;;;4.03;3.63;;;;;;;35.16;24.87;98824.22;5031940;28;20087;-83
2022/06/21 10:54:25;;;;;;;4.43;3.40;;;;;;;35.24;24.29;98810.31;5041532;28;20025;-83
2022/06/21 10:57:11;;;;;;;3.92;3.28;;;;;;;35.39;25.07;98816.13;5030649;28;20052;-85
2022/06/21 11:03:03;;;;;;;4.38;3.97;;;;;;;35.64;24.47;98820.16;5029583;28;20083;-84
2022/06/21 11:05:54;;;;;;;4.85;3.78;;;;;;;35.71;24.51;98820.34;5040882;28;20434;-84
2022/06/21 11:08:29;;;;;;;3.95;3.65;;;;;;;35.72;24.45;98807.41;5033212;28;20064;-84
2022/06/21 11:11:17;;;;;;;4.20;3.90;;;;;;;35.77;24.06;98805.16;5030971;28;20412;-84
2022/06/21 11:14:09;;;;;;;4.93;4.35;;;;;;;35.42;23.78;98713.81;5029533;28;20032;-84
2022/06/21 11:16:53;;;;;;;6.55;5.47;;;;;;;36.29;23.11;98809.28;5027591;28;20094;-83
2022/06/21 11:19:56;;;;;;;4.88;4.07;;;;;;;36.41;23.07;98811.03;5033716;28;20025;-82
2022/06/21 11:22:27;;;;;;;4.72;4.28;;;;;;;36.53;23.49;98803.44;5030868;28;20116;-84
2022/06/21 11:25:17;;;;;;;4.43;3.75;;;;;;;36.76;22.56;98808.09;5029743;28;20104;-82
2022/06/21 11:27:58;;;;;;;4.28;3.35;;;;;;;36.95;22.85;98810.75;5031070;28;20057;-84
2022/06/21 11:30:39;;;;;;;3.67;2.90;;;;;;;36.85;21.52;98803.16;5048918;28;20545;-83
2022/06/21 11:33:22;;;;;;;4.07;3.33;;;;;;;36.91;22.19;98794.19;5033913;28;20026;-84
2022/06/21 11:36:12;;;;;;;6.47;3.17;;;;;;;36.87;21.97;98787.06;5030643;28;20487;-84
2022/06/21 11:39:02;;;;;;;6.82;2.95;;;;;;;37.02;21.49;98797.09;5030496;28;20088;-84
2022/06/21 11:42:06;;;;;;;3.33;2.83;;;;;;;37.05;21.37;98803.81;5039860;28;20024;-82
2022/06/21 11:44:34;;;;;;;6.10;3.67;;;;;;;37.07;21.13;98801.50;5030828;28;20033;-84
2022/06/21 11:47:29;;;;;;;6.55;3.20;;;;;;;37.18;20.81;98810.72;5044621;28;20137;-84
2022/06/21 11:50:16;;;;;;;3.03;2.60;;;;;;;37.21;20.85;98799.75;5039297;28;20064;-82
2022/06/21 11:53:25;;;;;;;3.75;2.88;;;;;;;37.43;20.59;98789.81;5046945;28;20037;-83
2022/06/21 11:56:20;;;;;;;4.68;3.33;;;;;;;37.39;20.86;98755.16;5032746;28;20037;-82
2022/06/21 11:58:52;;;;;;;2.90;2.60;;;;;;;37.32;20.83;98757.81;5041530;28;20414;-82
2022/06/21 12:01:25;;;;;;;2.95;2.50;;;;;;;37.42;20.61;98744.19;5037148;28;20037;-83
2022/06/21 12:04:05;;;;;;;3.83;3.40;;;;;;;37.70;21.18;98782.28;5048282;28;20037;-83
2022/06/21 12:06:57;;;;;;;4.65;3.08;;;;;;;37.43;21.02;98750.47;5053797;28;20041;-83
2022/06/21 12:09:35;;;;;;;4.88;2.25;;;;;;;37.33;21.32;98734.63;5045264;28;20068;-83
2022/06/21 12:12:12;;;;;;;3.30;3.00;;;;;;;37.74;21.18;98772.09;5049664;28;20391;-83
2022/06/21 12:14:50;;;;;;;3.25;2.78;;;;;;;37.73;21.20;98767.75;5037003;28;20462;-83
2022/06/21 12:17:21;;;;;;;4.30;2.80;;;;;;;37.81;21.22;98763.91;5041877;28;20033;-85
2022/06/21 12:19:52;;;;;;;4.10;3.20;;;;;;;38.03;21.28;98769.66;5064312;28;20036;-84
2022/06/21 12:22:30;;;;;;;3.42;2.47;;;;;;;37.86;20.51;98735.22;5060246;28;20476;-83
2022/06/21 12:24:55;;;;;;;4.63;2.90;;;;;;;37.45;20.86;98676.53;5054409;28;20021;-84
2022/06/21 12:27:22;;;;;;;3.10;2.33;;;;;;;38.05;20.77;98748.81;5044099;28;20032;-84
2022/06/21 12:29:48;;;;;;;4.18;2.70;;;;;;;37.64;20.71;98667.28;5054067;28;20036;-84
2022/06/21 12:32:20;;;;;;;4.47;3.25;;;;;;;38.17;20.74;98717.41;5052810;28;20410;-84